sensor_id;sensor_type;location;lat;lon;timestamp;P1;durP1;ratioP1;P2;durP2;ratioP2
73015;SDS011;61893;50.074;14.440;2022-08-19T00:01:30;10.57;;;6.13;;
73015;SDS011;61893;50.074;14.440;2022-08-19T00:03:58;7.88;;;5.70;;
73015;SDS011;61893;50.074;14.440;2022-08-19T00:06:40;8.98;;;5.82;;
73015;SDS011;61893;50.074;14.440;2022-08-19T00:09:09;8.65;;;5.55;;
73015;SDS011;61893;50.074;14.440;2022-08-19T00:11:42;12.15;;;5.95;;
73015;SDS011;61893;50.074;14.440;2022-08-19T00:14:09;8.88;;;6.07;;
73015;SDS011;61893;50.074;14.440;2022-08-19T00:16:36;8.38;;;5.68;;
73015;SDS011;61893;50.074;14.440;2022-08-19T00:19:03;8.10;;;5.22;;
73015;SDS011;61893;50.074;14.440;2022-08-19T00:21:33;6.90;;;5.47;;
73015;SDS011;61893;50.074;14.440;2022-08-19T00:24:03;6.60;;;5.47;;
73015;SDS011;61893;50.074;14.440;2022-08-19T00:26:29;10.05;;;5.63;;
73015;SDS011;61893;50.074;14.440;2022-08-19T00:28:55;7.00;;;5.07;;
73015;SDS011;61893;50.074;14.440;2022-08-19T00:31:20;7.32;;;5.32;;
73015;SDS011;61893;50.074;14.440;2022-08-19T00:33:47;8.57;;;5.53;;
73015;SDS011;61893;50.074;14.440;2022-08-19T00:36:15;9.90;;;5.88;;
73015;SDS011;61893;50.074;14.440;2022-08-19T00:38:41;7.65;;;5.57;;
73015;SDS011;61893;50.074;14.440;2022-08-19T00:41:08;7.80;;;5.35;;
73015;SDS011;61893;50.074;14.440;2022-08-19T00:43:38;10.35;;;6.25;;
73015;SDS011;61893;50.074;14.440;2022-08-19T00:46:05;12.10;;;5.88;;
73015;SDS011;61893;50.074;14.440;2022-08-19T00:48:31;8.48;;;6.00;;
73015;SDS011;61893;50.074;14.440;2022-08-19T00:51:02;8.77;;;5.70;;
73015;SDS011;61893;50.074;14.440;2022-08-19T00:53:31;8.30;;;6.03;;
73015;SDS011;61893;50.074;14.440;2022-08-19T00:56:07;8.02;;;6.03;;
73015;SDS011;61893;50.074;14.440;2022-08-19T00:58:34;9.38;;;6.03;;
73015;SDS011;61893;50.074;14.440;2022-08-19T01:01:01;9.93;;;6.40;;
73015;SDS011;61893;50.074;14.440;2022-08-19T01:03:39;10.52;;;6.15;;
73015;SDS011;61893;50.074;14.440;2022-08-19T01:06:05;10.32;;;6.95;;
73015;SDS011;61893;50.074;14.440;2022-08-19T01:08:31;8.27;;;6.05;;
73015;SDS011;61893;50.074;14.440;2022-08-19T01:10:58;14.45;;;7.28;;
73015;SDS011;61893;50.074;14.440;2022-08-19T01:13:27;10.07;;;6.75;;
73015;SDS011;61893;50.074;14.440;2022-08-19T01:15:57;10.30;;;6.93;;
73015;SDS011;61893;50.074;14.440;2022-08-19T01:18:32;9.15;;;7.07;;
73015;SDS011;61893;50.074;14.440;2022-08-19T01:21:02;11.35;;;7.50;;
73015;SDS011;61893;50.074;14.440;2022-08-19T01:23:34;11.02;;;7.75;;
73015;SDS011;61893;50.074;14.440;2022-08-19T01:26:22;9.00;;;8.02;;
73015;SDS011;61893;50.074;14.440;2022-08-19T01:28:51;9.50;;;7.25;;
73015;SDS011;61893;50.074;14.440;2022-08-19T01:31:20;11.63;;;8.35;;
73015;SDS011;61893;50.074;14.440;2022-08-19T01:33:48;10.05;;;8.77;;
73015;SDS011;61893;50.074;14.440;2022-08-19T01:36:28;9.52;;;8.52;;
73015;SDS011;61893;50.074;14.440;2022-08-19T01:38:56;10.85;;;8.73;;
73015;SDS011;61893;50.074;14.440;2022-08-19T01:41:23;12.35;;;8.93;;
73015;SDS011;61893;50.074;14.440;2022-08-19T01:43:49;10.05;;;8.68;;
73015;SDS011;61893;50.074;14.440;2022-08-19T01:46:16;11.57;;;9.52;;
73015;SDS011;61893;50.074;14.440;2022-08-19T01:48:43;10.77;;;8.90;;
73015;SDS011;61893;50.074;14.440;2022-08-19T01:51:09;12.75;;;8.98;;
73015;SDS011;61893;50.074;14.440;2022-08-19T01:53:36;11.95;;;9.25;;
73015;SDS011;61893;50.074;14.440;2022-08-19T01:56:04;12.57;;;9.50;;
73015;SDS011;61893;50.074;14.440;2022-08-19T01:58:32;12.70;;;9.95;;
73015;SDS011;61893;50.074;14.440;2022-08-19T02:01:06;15.00;;;10.15;;
73015;SDS011;61893;50.074;14.440;2022-08-19T02:03:34;11.65;;;9.95;;
73015;SDS011;61893;50.074;14.440;2022-08-19T02:06:00;11.40;;;9.73;;
73015;SDS011;61893;50.074;14.440;2022-08-19T02:08:56;13.75;;;9.93;;
73015;SDS011;61893;50.074;14.440;2022-08-19T02:11:24;11.98;;;9.80;;
73015;SDS011;61893;50.074;14.440;2022-08-19T02:14:09;12.60;;;10.55;;
73015;SDS011;61893;50.074;14.440;2022-08-19T02:16:35;12.68;;;10.45;;
73015;SDS011;61893;50.074;14.440;2022-08-19T02:19:01;13.13;;;10.77;;
73015;SDS011;61893;50.074;14.440;2022-08-19T02:21:31;14.95;;;9.98;;
73015;SDS011;61893;50.074;14.440;2022-08-19T02:23:58;14.27;;;11.15;;
73015;SDS011;61893;50.074;14.440;2022-08-19T02:26:26;11.35;;;9.30;;
73015;SDS011;61893;50.074;14.440;2022-08-19T02:28:52;15.13;;;9.85;;
73015;SDS011;61893;50.074;14.440;2022-08-19T02:31:26;11.80;;;9.13;;
73015;SDS011;61893;50.074;14.440;2022-08-19T02:33:55;11.27;;;9.73;;
73015;SDS011;61893;50.074;14.440;2022-08-19T02:36:24;12.85;;;9.48;;
73015;SDS011;61893;50.074;14.440;2022-08-19T02:39:11;11.45;;;9.45;;
73015;SDS011;61893;50.074;14.440;2022-08-19T02:41:40;13.90;;;10.00;;
73015;SDS011;61893;50.074;14.440;2022-08-19T02:44:07;14.65;;;10.52;;
73015;SDS011;61893;50.074;14.440;2022-08-19T02:46:34;13.20;;;10.48;;
73015;SDS011;61893;50.074;14.440;2022-08-19T02:49:09;14.80;;;11.40;;
73015;SDS011;61893;50.074;14.440;2022-08-19T02:51:36;15.52;;;11.48;;
73015;SDS011;61893;50.074;14.440;2022-08-19T02:54:08;15.38;;;11.23;;
73015;SDS011;61893;50.074;14.440;2022-08-19T02:56:59;16.63;;;12.93;;
73015;SDS011;61893;50.074;14.440;2022-08-19T03:00:17;15.13;;;13.10;;
73015;SDS011;61893;50.074;14.440;2022-08-19T03:03:00;18.10;;;13.80;;
73015;SDS011;61893;50.074;14.440;2022-08-19T03:05:28;19.15;;;13.65;;
73015;SDS011;61893;50.074;14.440;2022-08-19T03:08:00;17.35;;;14.18;;
73015;SDS011;61893;50.074;14.440;2022-08-19T03:10:44;18.77;;;14.75;;
73015;SDS011;61893;50.074;14.440;2022-08-19T03:13:30;21.75;;;14.60;;
73015;SDS011;61893;50.074;14.440;2022-08-19T03:15:55;19.65;;;14.02;;
73015;SDS011;61893;50.074;14.440;2022-08-19T03:18:21;18.92;;;14.85;;
73015;SDS011;61893;50.074;14.440;2022-08-19T03:21:00;20.13;;;15.38;;
73015;SDS011;61893;50.074;14.440;2022-08-19T03:23:29;18.42;;;15.50;;
73015;SDS011;61893;50.074;14.440;2022-08-19T03:25:55;19.10;;;15.27;;
73015;SDS011;61893;50.074;14.440;2022-08-19T03:28:21;21.98;;;15.65;;
73015;SDS011;61893;50.074;14.440;2022-08-19T03:33:51;20.92;;;16.10;;
73015;SDS011;61893;50.074;14.440;2022-08-19T03:36:18;18.27;;;15.38;;
73015;SDS011;61893;50.074;14.440;2022-08-19T03:38:51;20.30;;;15.85;;
73015;SDS011;61893;50.074;14.440;2022-08-19T03:41:20;19.35;;;15.90;;
73015;SDS011;61893;50.074;14.440;2022-08-19T03:43:52;20.77;;;15.73;;
73015;SDS011;61893;50.074;14.440;2022-08-19T03:46:22;17.67;;;15.02;;
73015;SDS011;61893;50.074;14.440;2022-08-19T03:49:02;21.30;;;16.27;;
73015;SDS011;61893;50.074;14.440;2022-08-19T03:51:49;18.30;;;14.82;;
73015;SDS011;61893;50.074;14.440;2022-08-19T03:54:16;21.17;;;16.08;;
73015;SDS011;61893;50.074;14.440;2022-08-19T03:56:48;18.80;;;15.32;;
73015;SDS011;61893;50.074;14.440;2022-08-19T03:59:22;19.98;;;16.48;;
73015;SDS011;61893;50.074;14.440;2022-08-19T04:01:53;21.90;;;17.40;;
73015;SDS011;61893;50.074;14.440;2022-08-19T04:04:24;24.20;;;17.25;;
73015;SDS011;61893;50.074;14.440;2022-08-19T04:07:03;21.48;;;16.77;;
73015;SDS011;61893;50.074;14.440;2022-08-19T04:09:42;25.10;;;18.10;;
73015;SDS011;61893;50.074;14.440;2022-08-19T04:12:08;23.85;;;17.27;;
73015;SDS011;61893;50.074;14.440;2022-08-19T04:14:36;22.55;;;16.60;;
73015;SDS011;61893;50.074;14.440;2022-08-19T04:17:02;23.02;;;16.95;;
73015;SDS011;61893;50.074;14.440;2022-08-19T04:19:30;21.42;;;17.42;;
73015;SDS011;61893;50.074;14.440;2022-08-19T04:21:57;20.98;;;16.85;;
73015;SDS011;61893;50.074;14.440;2022-08-19T04:24:23;21.42;;;16.42;;
73015;SDS011;61893;50.074;14.440;2022-08-19T04:26:49;21.33;;;15.73;;
73015;SDS011;61893;50.074;14.440;2022-08-19T04:29:22;20.10;;;16.48;;
73015;SDS011;61893;50.074;14.440;2022-08-19T04:31:50;21.02;;;16.88;;
73015;SDS011;61893;50.074;14.440;2022-08-19T04:34:19;22.55;;;17.63;;
73015;SDS011;61893;50.074;14.440;2022-08-19T04:36:51;22.48;;;17.40;;
73015;SDS011;61893;50.074;14.440;2022-08-19T04:39:22;20.50;;;16.67;;
73015;SDS011;61893;50.074;14.440;2022-08-19T04:42:14;21.88;;;17.42;;
73015;SDS011;61893;50.074;14.440;2022-08-19T04:45:02;23.75;;;16.58;;
73015;SDS011;61893;50.074;14.440;2022-08-19T04:47:37;19.95;;;15.95;;
73015;SDS011;61893;50.074;14.440;2022-08-19T04:50:06;21.20;;;16.67;;
73015;SDS011;61893;50.074;14.440;2022-08-19T04:52:35;20.52;;;16.95;;
73015;SDS011;61893;50.074;14.440;2022-08-19T04:55:01;19.90;;;17.05;;
73015;SDS011;61893;50.074;14.440;2022-08-19T04:57:31;19.85;;;16.05;;
73015;SDS011;61893;50.074;14.440;2022-08-19T05:00:01;22.02;;;16.65;;
73015;SDS011;61893;50.074;14.440;2022-08-19T05:02:30;20.88;;;16.45;;
73015;SDS011;61893;50.074;14.440;2022-08-19T05:04:58;20.50;;;16.42;;
73015;SDS011;61893;50.074;14.440;2022-08-19T05:07:31;20.65;;;16.40;;
73015;SDS011;61893;50.074;14.440;2022-08-19T05:09:57;25.05;;;16.75;;
73015;SDS011;61893;50.074;14.440;2022-08-19T05:12:23;21.23;;;17.30;;
73015;SDS011;61893;50.074;14.440;2022-08-19T05:14:50;20.98;;;16.92;;
73015;SDS011;61893;50.074;14.440;2022-08-19T05:17:18;22.20;;;17.67;;
73015;SDS011;61893;50.074;14.440;2022-08-19T05:20:15;20.92;;;17.50;;
73015;SDS011;61893;50.074;14.440;2022-08-19T05:22:59;23.52;;;18.50;;
73015;SDS011;61893;50.074;14.440;2022-08-19T05:25:25;22.40;;;18.90;;
73015;SDS011;61893;50.074;14.440;2022-08-19T05:27:50;24.30;;;18.48;;
73015;SDS011;61893;50.074;14.440;2022-08-19T05:30:30;23.00;;;17.80;;
73015;SDS011;61893;50.074;14.440;2022-08-19T05:32:57;21.58;;;17.67;;
73015;SDS011;61893;50.074;14.440;2022-08-19T05:35:23;23.83;;;17.60;;
73015;SDS011;61893;50.074;14.440;2022-08-19T05:37:49;26.02;;;18.58;;
73015;SDS011;61893;50.074;14.440;2022-08-19T05:40:16;21.55;;;18.35;;
73015;SDS011;61893;50.074;14.440;2022-08-19T05:42:42;22.92;;;18.02;;
73015;SDS011;61893;50.074;14.440;2022-08-19T05:45:07;23.40;;;17.95;;
73015;SDS011;61893;50.074;14.440;2022-08-19T05:47:38;25.80;;;17.83;;
73015;SDS011;61893;50.074;14.440;2022-08-19T05:50:05;24.48;;;17.25;;
73015;SDS011;61893;50.074;14.440;2022-08-19T05:52:53;24.23;;;18.55;;
73015;SDS011;61893;50.074;14.440;2022-08-19T05:55:22;23.77;;;19.27;;
73015;SDS011;61893;50.074;14.440;2022-08-19T05:57:49;25.52;;;19.40;;
73015;SDS011;61893;50.074;14.440;2022-08-19T06:00:15;23.70;;;18.55;;
73015;SDS011;61893;50.074;14.440;2022-08-19T06:02:42;22.58;;;18.20;;
73015;SDS011;61893;50.074;14.440;2022-08-19T06:05:07;24.23;;;19.13;;
73015;SDS011;61893;50.074;14.440;2022-08-19T06:07:37;25.77;;;18.83;;
73015;SDS011;61893;50.074;14.440;2022-08-19T06:10:04;23.25;;;18.95;;
73015;SDS011;61893;50.074;14.440;2022-08-19T06:12:38;23.17;;;17.77;;
73015;SDS011;61893;50.074;14.440;2022-08-19T06:15:05;21.20;;;17.27;;
73015;SDS011;61893;50.074;14.440;2022-08-19T06:17:35;23.75;;;17.95;;
73015;SDS011;61893;50.074;14.440;2022-08-19T06:20:02;25.58;;;18.17;;
73015;SDS011;61893;50.074;14.440;2022-08-19T06:22:29;25.52;;;18.75;;
73015;SDS011;61893;50.074;14.440;2022-08-19T06:24:55;21.85;;;18.13;;
73015;SDS011;61893;50.074;14.440;2022-08-19T06:27:21;22.70;;;18.45;;
73015;SDS011;61893;50.074;14.440;2022-08-19T06:29:48;22.17;;;17.85;;
73015;SDS011;61893;50.074;14.440;2022-08-19T06:32:15;22.42;;;18.05;;
73015;SDS011;61893;50.074;14.440;2022-08-19T06:34:43;20.80;;;17.30;;
73015;SDS011;61893;50.074;14.440;2022-08-19T06:37:08;24.25;;;17.38;;
73015;SDS011;61893;50.074;14.440;2022-08-19T06:39:35;25.90;;;18.00;;
73015;SDS011;61893;50.074;14.440;2022-08-19T06:42:06;22.83;;;17.90;;
73015;SDS011;61893;50.074;14.440;2022-08-19T06:44:35;22.75;;;18.17;;
73015;SDS011;61893;50.074;14.440;2022-08-19T06:47:07;21.50;;;17.15;;
73015;SDS011;61893;50.074;14.440;2022-08-19T06:49:34;20.83;;;16.88;;
73015;SDS011;61893;50.074;14.440;2022-08-19T06:52:02;20.70;;;17.15;;
73015;SDS011;61893;50.074;14.440;2022-08-19T06:54:28;23.20;;;17.05;;
73015;SDS011;61893;50.074;14.440;2022-08-19T06:56:55;25.15;;;17.20;;
73015;SDS011;61893;50.074;14.440;2022-08-19T06:59:28;22.98;;;17.33;;
73015;SDS011;61893;50.074;14.440;2022-08-19T07:01:59;20.40;;;16.65;;
73015;SDS011;61893;50.074;14.440;2022-08-19T07:04:28;20.10;;;16.73;;
73015;SDS011;61893;50.074;14.440;2022-08-19T07:07:01;20.02;;;15.90;;
73015;SDS011;61893;50.074;14.440;2022-08-19T07:09:35;21.02;;;15.98;;
73015;SDS011;61893;50.074;14.440;2022-08-19T07:12:15;19.20;;;15.80;;
73015;SDS011;61893;50.074;14.440;2022-08-19T07:14:44;16.80;;;14.98;;
73015;SDS011;61893;50.074;14.440;2022-08-19T07:17:23;18.23;;;15.07;;
73015;SDS011;61893;50.074;14.440;2022-08-19T07:19:52;20.63;;;16.45;;
73015;SDS011;61893;50.074;14.440;2022-08-19T07:22:18;20.73;;;15.68;;
73015;SDS011;61893;50.074;14.440;2022-08-19T07:24:47;17.95;;;15.82;;
73015;SDS011;61893;50.074;14.440;2022-08-19T07:27:14;20.50;;;17.05;;
73015;SDS011;61893;50.074;14.440;2022-08-19T07:29:39;26.88;;;16.25;;
73015;SDS011;61893;50.074;14.440;2022-08-19T07:32:08;18.48;;;16.15;;
73015;SDS011;61893;50.074;14.440;2022-08-19T07:34:34;19.50;;;16.02;;
73015;SDS011;61893;50.074;14.440;2022-08-19T07:37:06;17.77;;;15.88;;
73015;SDS011;61893;50.074;14.440;2022-08-19T07:39:35;21.83;;;15.80;;
73015;SDS011;61893;50.074;14.440;2022-08-19T07:42:06;19.05;;;14.80;;
73015;SDS011;61893;50.074;14.440;2022-08-19T07:44:34;19.80;;;15.50;;
73015;SDS011;61893;50.074;14.440;2022-08-19T07:47:02;19.80;;;15.40;;
73015;SDS011;61893;50.074;14.440;2022-08-19T07:49:30;17.95;;;16.02;;
73015;SDS011;61893;50.074;14.440;2022-08-19T07:51:59;20.13;;;15.68;;
73015;SDS011;61893;50.074;14.440;2022-08-19T07:54:27;18.38;;;15.18;;
73015;SDS011;61893;50.074;14.440;2022-08-19T07:56:54;23.15;;;15.10;;
73015;SDS011;61893;50.074;14.440;2022-08-19T07:59:20;19.23;;;16.35;;
73015;SDS011;61893;50.074;14.440;2022-08-19T08:02:03;20.75;;;16.58;;
73015;SDS011;61893;50.074;14.440;2022-08-19T08:04:30;18.38;;;15.88;;
73015;SDS011;61893;50.074;14.440;2022-08-19T08:07:15;19.52;;;15.65;;
73015;SDS011;61893;50.074;14.440;2022-08-19T08:10:00;19.75;;;15.32;;
73015;SDS011;61893;50.074;14.440;2022-08-19T08:12:44;18.83;;;16.83;;
73015;SDS011;61893;50.074;14.440;2022-08-19T08:15:11;20.92;;;16.20;;
73015;SDS011;61893;50.074;14.440;2022-08-19T08:17:41;20.98;;;16.17;;
73015;SDS011;61893;50.074;14.440;2022-08-19T08:20:08;20.42;;;17.13;;
73015;SDS011;61893;50.074;14.440;2022-08-19T08:22:34;19.67;;;17.00;;
73015;SDS011;61893;50.074;14.440;2022-08-19T08:25:20;18.92;;;16.63;;
73015;SDS011;61893;50.074;14.440;2022-08-19T08:27:54;20.30;;;17.08;;
73015;SDS011;61893;50.074;14.440;2022-08-19T08:30:26;23.73;;;17.30;;
73015;SDS011;61893;50.074;14.440;2022-08-19T08:32:52;21.73;;;16.98;;
73015;SDS011;61893;50.074;14.440;2022-08-19T08:35:19;19.08;;;15.77;;
73015;SDS011;61893;50.074;14.440;2022-08-19T08:37:51;20.17;;;16.10;;
73015;SDS011;61893;50.074;14.440;2022-08-19T08:46:09;20.38;;;15.70;;
73015;SDS011;61893;50.074;14.440;2022-08-19T08:51:24;17.40;;;15.30;;
73015;SDS011;61893;50.074;14.440;2022-08-19T08:53:54;19.70;;;16.20;;
73015;SDS011;61893;50.074;14.440;2022-08-19T08:56:20;17.85;;;15.48;;
73015;SDS011;61893;50.074;14.440;2022-08-19T08:58:50;22.60;;;16.10;;
73015;SDS011;61893;50.074;14.440;2022-08-19T09:01:22;19.00;;;16.25;;
73015;SDS011;61893;50.074;14.440;2022-08-19T09:03:52;22.90;;;17.30;;
73015;SDS011;61893;50.074;14.440;2022-08-19T09:14:35;21.00;;;15.93;;
73015;SDS011;61893;50.074;14.440;2022-08-19T09:17:03;21.23;;;15.35;;
73015;SDS011;61893;50.074;14.440;2022-08-19T09:19:56;17.30;;;15.32;;
73015;SDS011;61893;50.074;14.440;2022-08-19T09:22:24;21.77;;;15.25;;
73015;SDS011;61893;50.074;14.440;2022-08-19T09:24:54;19.15;;;14.93;;
73015;SDS011;61893;50.074;14.440;2022-08-19T09:27:21;18.98;;;15.13;;
73015;SDS011;61893;50.074;14.440;2022-08-19T09:29:51;20.85;;;15.70;;
73015;SDS011;61893;50.074;14.440;2022-08-19T09:32:18;17.92;;;15.57;;
73015;SDS011;61893;50.074;14.440;2022-08-19T09:34:44;21.80;;;17.90;;
73015;SDS011;61893;50.074;14.440;2022-08-19T09:37:12;19.27;;;16.00;;
73015;SDS011;61893;50.074;14.440;2022-08-19T09:39:39;20.40;;;15.38;;
73015;SDS011;61893;50.074;14.440;2022-08-19T09:42:08;19.67;;;15.57;;
73015;SDS011;61893;50.074;14.440;2022-08-19T09:44:42;19.80;;;15.48;;
73015;SDS011;61893;50.074;14.440;2022-08-19T09:47:09;18.58;;;16.17;;
73015;SDS011;61893;50.074;14.440;2022-08-19T09:49:36;20.65;;;15.50;;
73015;SDS011;61893;50.074;14.440;2022-08-19T09:52:05;18.50;;;16.10;;
73015;SDS011;61893;50.074;14.440;2022-08-19T09:54:32;17.33;;;15.43;;
73015;SDS011;61893;50.074;14.440;2022-08-19T09:56:59;19.48;;;15.25;;
73015;SDS011;61893;50.074;14.440;2022-08-19T09:59:42;17.13;;;15.30;;
73015;SDS011;61893;50.074;14.440;2022-08-19T10:02:09;19.95;;;14.73;;
73015;SDS011;61893;50.074;14.440;2022-08-19T10:04:35;20.50;;;15.57;;
73015;SDS011;61893;50.074;14.440;2022-08-19T10:07:20;18.80;;;15.45;;
73015;SDS011;61893;50.074;14.440;2022-08-19T10:09:45;18.10;;;15.50;;
73015;SDS011;61893;50.074;14.440;2022-08-19T10:12:12;19.75;;;14.77;;
73015;SDS011;61893;50.074;14.440;2022-08-19T10:14:37;23.00;;;16.02;;
73015;SDS011;61893;50.074;14.440;2022-08-19T10:17:16;20.13;;;16.08;;
73015;SDS011;61893;50.074;14.440;2022-08-19T10:19:43;19.83;;;15.40;;
73015;SDS011;61893;50.074;14.440;2022-08-19T10:22:08;20.25;;;15.57;;
73015;SDS011;61893;50.074;14.440;2022-08-19T10:24:39;19.08;;;15.38;;
73015;SDS011;61893;50.074;14.440;2022-08-19T10:27:07;19.73;;;15.68;;
73015;SDS011;61893;50.074;14.440;2022-08-19T10:29:37;19.50;;;15.45;;
73015;SDS011;61893;50.074;14.440;2022-08-19T10:32:04;21.25;;;16.67;;
73015;SDS011;61893;50.074;14.440;2022-08-19T10:34:34;19.10;;;15.85;;
73015;SDS011;61893;50.074;14.440;2022-08-19T10:37:15;18.88;;;15.63;;
73015;SDS011;61893;50.074;14.440;2022-08-19T10:39:45;20.13;;;15.52;;
73015;SDS011;61893;50.074;14.440;2022-08-19T10:42:23;18.02;;;16.13;;
73015;SDS011;61893;50.074;14.440;2022-08-19T10:45:05;17.67;;;15.02;;
73015;SDS011;61893;50.074;14.440;2022-08-19T10:47:32;17.98;;;15.23;;
73015;SDS011;61893;50.074;14.440;2022-08-19T10:50:04;17.77;;;15.87;;
73015;SDS011;61893;50.074;14.440;2022-08-19T10:52:49;19.80;;;15.40;;
73015;SDS011;61893;50.074;14.440;2022-08-19T10:55:16;19.27;;;15.35;;
73015;SDS011;61893;50.074;14.440;2022-08-19T10:58:18;18.58;;;15.48;;
73015;SDS011;61893;50.074;14.440;2022-08-19T11:00:56;17.63;;;15.77;;
73015;SDS011;61893;50.074;14.440;2022-08-19T11:03:24;21.42;;;15.85;;
73015;SDS011;61893;50.074;14.440;2022-08-19T11:06:03;20.95;;;16.08;;
73015;SDS011;61893;50.074;14.440;2022-08-19T11:08:30;17.60;;;15.40;;
73015;SDS011;61893;50.074;14.440;2022-08-19T11:10:59;19.83;;;16.45;;
73015;SDS011;61893;50.074;14.440;2022-08-19T11:13:29;18.55;;;15.77;;
73015;SDS011;61893;50.074;14.440;2022-08-19T11:16:00;25.00;;;15.65;;
73015;SDS011;61893;50.074;14.440;2022-08-19T11:18:31;18.38;;;14.75;;
73015;SDS011;61893;50.074;14.440;2022-08-19T11:21:23;21.50;;;15.90;;
73015;SDS011;61893;50.074;14.440;2022-08-19T11:23:51;19.88;;;14.65;;
73015;SDS011;61893;50.074;14.440;2022-08-19T11:26:34;19.40;;;15.35;;
73015;SDS011;61893;50.074;14.440;2022-08-19T11:29:20;18.17;;;15.35;;
73015;SDS011;61893;50.074;14.440;2022-08-19T11:32:07;18.83;;;15.13;;
73015;SDS011;61893;50.074;14.440;2022-08-19T11:34:56;16.13;;;14.40;;
73015;SDS011;61893;50.074;14.440;2022-08-19T11:37:26;18.25;;;14.57;;
73015;SDS011;61893;50.074;14.440;2022-08-19T11:40:07;16.60;;;14.90;;
73015;SDS011;61893;50.074;14.440;2022-08-19T11:42:54;18.63;;;14.38;;
73015;SDS011;61893;50.074;14.440;2022-08-19T11:45:42;20.45;;;16.65;;
73015;SDS011;61893;50.074;14.440;2022-08-19T11:48:24;19.23;;;15.57;;
73015;SDS011;61893;50.074;14.440;2022-08-19T11:50:51;20.25;;;15.30;;
73015;SDS011;61893;50.074;14.440;2022-08-19T11:53:20;19.10;;;15.38;;
73015;SDS011;61893;50.074;14.440;2022-08-19T11:55:49;17.50;;;15.70;;
73015;SDS011;61893;50.074;14.440;2022-08-19T11:58:22;18.00;;;15.65;;
73015;SDS011;61893;50.074;14.440;2022-08-19T12:00:50;20.17;;;16.88;;
73015;SDS011;61893;50.074;14.440;2022-08-19T12:03:18;19.75;;;15.25;;
73015;SDS011;61893;50.074;14.440;2022-08-19T12:05:50;18.38;;;15.90;;
73015;SDS011;61893;50.074;14.440;2022-08-19T12:08:18;22.13;;;16.10;;
73015;SDS011;61893;50.074;14.440;2022-08-19T12:10:45;21.33;;;16.48;;
73015;SDS011;61893;50.074;14.440;2022-08-19T12:13:12;18.73;;;15.57;;
73015;SDS011;61893;50.074;14.440;2022-08-19T12:15:45;18.08;;;16.15;;
73015;SDS011;61893;50.074;14.440;2022-08-19T12:18:12;18.27;;;15.02;;
73015;SDS011;61893;50.074;14.440;2022-08-19T12:20:39;16.27;;;14.15;;
73015;SDS011;61893;50.074;14.440;2022-08-19T12:23:07;18.55;;;14.82;;
73015;SDS011;61893;50.074;14.440;2022-08-19T12:25:35;16.48;;;12.73;;
73015;SDS011;61893;50.074;14.440;2022-08-19T12:28:02;18.48;;;13.35;;
73015;SDS011;61893;50.074;14.440;2022-08-19T12:30:30;18.08;;;14.05;;
73015;SDS011;61893;50.074;14.440;2022-08-19T12:32:55;14.98;;;13.27;;
73015;SDS011;61893;50.074;14.440;2022-08-19T12:35:21;15.88;;;12.98;;
73015;SDS011;61893;50.074;14.440;2022-08-19T12:37:49;24.05;;;13.38;;
73015;SDS011;61893;50.074;14.440;2022-08-19T12:40:32;16.15;;;12.70;;
73015;SDS011;61893;50.074;14.440;2022-08-19T12:42:58;15.40;;;13.52;;
73015;SDS011;61893;50.074;14.440;2022-08-19T12:45:24;20.70;;;13.35;;
73015;SDS011;61893;50.074;14.440;2022-08-19T12:47:50;16.95;;;12.25;;
73015;SDS011;61893;50.074;14.440;2022-08-19T12:50:16;15.63;;;13.18;;
73015;SDS011;61893;50.074;14.440;2022-08-19T12:52:42;14.13;;;12.55;;
73015;SDS011;61893;50.074;14.440;2022-08-19T12:55:08;16.40;;;13.13;;
73015;SDS011;61893;50.074;14.440;2022-08-19T12:57:33;16.10;;;14.07;;
73015;SDS011;61893;50.074;14.440;2022-08-19T13:02:41;20.58;;;14.20;;
73015;SDS011;61893;50.074;14.440;2022-08-19T13:05:10;17.38;;;13.38;;
73015;SDS011;61893;50.074;14.440;2022-08-19T13:07:41;15.77;;;13.30;;
73015;SDS011;61893;50.074;14.440;2022-08-19T13:10:28;17.63;;;13.75;;
73015;SDS011;61893;50.074;14.440;2022-08-19T13:13:00;17.17;;;13.88;;
73015;SDS011;61893;50.074;14.440;2022-08-19T13:15:28;17.80;;;13.68;;
73015;SDS011;61893;50.074;14.440;2022-08-19T13:17:57;16.10;;;13.38;;
73015;SDS011;61893;50.074;14.440;2022-08-19T13:20:23;17.88;;;13.85;;
73015;SDS011;61893;50.074;14.440;2022-08-19T13:23:04;15.02;;;13.15;;
73015;SDS011;61893;50.074;14.440;2022-08-19T13:25:30;15.50;;;12.93;;
73015;SDS011;61893;50.074;14.440;2022-08-19T13:27:55;20.23;;;12.98;;
73015;SDS011;61893;50.074;14.440;2022-08-19T13:30:21;17.90;;;12.88;;
73015;SDS011;61893;50.074;14.440;2022-08-19T13:33:06;19.45;;;12.80;;
73015;SDS011;61893;50.074;14.440;2022-08-19T13:35:36;14.90;;;13.23;;
73015;SDS011;61893;50.074;14.440;2022-08-19T13:38:21;18.30;;;13.48;;
73015;SDS011;61893;50.074;14.440;2022-08-19T13:40:48;13.95;;;12.48;;
73015;SDS011;61893;50.074;14.440;2022-08-19T13:43:20;16.35;;;12.80;;
73015;SDS011;61893;50.074;14.440;2022-08-19T13:45:47;14.75;;;13.25;;
73015;SDS011;61893;50.074;14.440;2022-08-19T13:48:21;16.95;;;12.50;;
73015;SDS011;61893;50.074;14.440;2022-08-19T13:50:48;16.25;;;13.23;;
73015;SDS011;61893;50.074;14.440;2022-08-19T13:53:14;15.27;;;12.60;;
73015;SDS011;61893;50.074;14.440;2022-08-19T13:55:41;14.02;;;12.50;;
73015;SDS011;61893;50.074;14.440;2022-08-19T13:58:24;19.10;;;12.80;;
73015;SDS011;61893;50.074;14.440;2022-08-19T14:01:00;14.52;;;12.93;;
73015;SDS011;61893;50.074;14.440;2022-08-19T14:03:26;14.43;;;12.80;;
73015;SDS011;61893;50.074;14.440;2022-08-19T14:05:52;15.00;;;12.70;;
73015;SDS011;61893;50.074;14.440;2022-08-19T14:08:17;15.55;;;12.32;;
73015;SDS011;61893;50.074;14.440;2022-08-19T14:10:43;15.40;;;12.10;;
73015;SDS011;61893;50.074;14.440;2022-08-19T14:13:12;15.20;;;12.48;;
73015;SDS011;61893;50.074;14.440;2022-08-19T14:15:39;13.52;;;12.13;;
73015;SDS011;61893;50.074;14.440;2022-08-19T14:18:05;15.70;;;12.32;;
73015;SDS011;61893;50.074;14.440;2022-08-19T14:20:34;16.15;;;13.20;;
73015;SDS011;61893;50.074;14.440;2022-08-19T14:23:02;15.10;;;12.43;;
73015;SDS011;61893;50.074;14.440;2022-08-19T14:25:30;14.00;;;12.50;;
73015;SDS011;61893;50.074;14.440;2022-08-19T14:27:58;14.77;;;12.65;;
73015;SDS011;61893;50.074;14.440;2022-08-19T14:30:25;17.75;;;11.90;;
73015;SDS011;61893;50.074;14.440;2022-08-19T14:32:54;13.95;;;12.45;;
73015;SDS011;61893;50.074;14.440;2022-08-19T14:35:24;16.55;;;12.55;;
73015;SDS011;61893;50.074;14.440;2022-08-19T14:37:53;14.43;;;11.90;;
73015;SDS011;61893;50.074;14.440;2022-08-19T14:40:21;15.20;;;12.35;;
73015;SDS011;61893;50.074;14.440;2022-08-19T14:43:04;14.55;;;11.57;;
73015;SDS011;61893;50.074;14.440;2022-08-19T14:45:31;15.35;;;11.88;;
73015;SDS011;61893;50.074;14.440;2022-08-19T14:47:59;16.13;;;11.43;;
73015;SDS011;61893;50.074;14.440;2022-08-19T14:50:28;13.10;;;11.70;;
73015;SDS011;61893;50.074;14.440;2022-08-19T14:53:02;16.42;;;11.35;;
73015;SDS011;61893;50.074;14.440;2022-08-19T14:55:31;13.38;;;11.27;;